Acegua, Brazil
Current Conditions -  °F | °C
As of 8:00 AM on Friday 24 Oct 2014 (Local Time) from SBPK Reporting Station
Broken Clouds Broken Clouds  
Wind Chill: 63°   Ceiling: 2000
Heat Index: 63°   Visibility: 4mi
Dew Point: 63°   Wind: 0mph
Humidity: 100%   Direction: NA
Pressure: 30"   Gusts: NA
Location:  31.87°S, 54.15°W
Report Text: SBPK 241000Z 00000KT 6000 BKN020 17/17 Q1016
Loading
Personal Weather Stations






























Interactive Weather Map
Tropical Storm Tracking
New forecast layout! Learn more

10-Day Weather Forecast

Advertisements
Track Severe Weather on mobile